sensor_id;sensor_type;location;lat;lon;timestamp;P1;durP1;ratioP1;P2;durP2;ratioP2
23260;SDS011;11799;47.740;-3.390;2023-07-13T00:01:46;6.60;;;2.20;;
23260;SDS011;11799;47.740;-3.390;2023-07-13T00:04:15;8.70;;;2.38;;
23260;SDS011;11799;47.740;-3.390;2023-07-13T00:06:42;8.77;;;2.10;;
23260;SDS011;11799;47.740;-3.390;2023-07-13T00:09:13;6.53;;;1.95;;
23260;SDS011;11799;47.740;-3.390;2023-07-13T00:14:06;6.50;;;2.25;;
23260;SDS011;11799;47.740;-3.390;2023-07-13T00:16:33;10.00;;;2.47;;
23260;SDS011;11799;47.740;-3.390;2023-07-13T00:19:00;7.53;;;2.28;;
23260;SDS011;11799;47.740;-3.390;2023-07-13T00:21:26;6.20;;;2.45;;
23260;SDS011;11799;47.740;-3.390;2023-07-13T00:23:52;4.80;;;2.30;;
23260;SDS011;11799;47.740;-3.390;2023-07-13T00:26:17;9.27;;;2.83;;
23260;SDS011;11799;47.740;-3.390;2023-07-13T00:28:43;7.47;;;2.83;;
23260;SDS011;11799;47.740;-3.390;2023-07-13T00:31:09;6.70;;;2.08;;
23260;SDS011;11799;47.740;-3.390;2023-07-13T00:33:37;5.45;;;2.20;;
23260;SDS011;11799;47.740;-3.390;2023-07-13T00:36:02;7.25;;;1.92;;
23260;SDS011;11799;47.740;-3.390;2023-07-13T00:38:29;5.65;;;2.30;;
23260;SDS011;11799;47.740;-3.390;2023-07-13T00:40:54;8.57;;;2.50;;
23260;SDS011;11799;47.740;-3.390;2023-07-13T00:43:21;7.75;;;2.00;;
23260;SDS011;11799;47.740;-3.390;2023-07-13T00:48:25;5.70;;;2.00;;
23260;SDS011;11799;47.740;-3.390;2023-07-13T00:50:55;8.23;;;2.45;;
23260;SDS011;11799;47.740;-3.390;2023-07-13T00:53:24;4.55;;;1.73;;
23260;SDS011;11799;47.740;-3.390;2023-07-13T00:55:51;8.18;;;2.05;;
23260;SDS011;11799;47.740;-3.390;2023-07-13T00:58:21;6.50;;;1.98;;
23260;SDS011;11799;47.740;-3.390;2023-07-13T01:00:47;6.00;;;2.22;;
23260;SDS011;11799;47.740;-3.390;2023-07-13T01:03:14;7.03;;;2.17;;
23260;SDS011;11799;47.740;-3.390;2023-07-13T01:05:40;5.10;;;1.77;;
23260;SDS011;11799;47.740;-3.390;2023-07-13T01:08:07;5.32;;;2.05;;
23260;SDS011;11799;47.740;-3.390;2023-07-13T01:10:33;4.13;;;2.08;;
23260;SDS011;11799;47.740;-3.390;2023-07-13T01:13:07;8.70;;;2.67;;
23260;SDS011;11799;47.740;-3.390;2023-07-13T01:15:36;6.05;;;2.25;;
23260;SDS011;11799;47.740;-3.390;2023-07-13T01:18:13;4.22;;;2.08;;
23260;SDS011;11799;47.740;-3.390;2023-07-13T01:20:50;6.65;;;1.70;;
23260;SDS011;11799;47.740;-3.390;2023-07-13T01:23:39;2.88;;;1.50;;
23260;SDS011;11799;47.740;-3.390;2023-07-13T01:26:04;7.70;;;2.20;;
23260;SDS011;11799;47.740;-3.390;2023-07-13T01:28:30;6.07;;;1.88;;
23260;SDS011;11799;47.740;-3.390;2023-07-13T01:30:56;5.45;;;2.03;;
23260;SDS011;11799;47.740;-3.390;2023-07-13T01:33:23;4.65;;;1.85;;
23260;SDS011;11799;47.740;-3.390;2023-07-13T01:35:49;6.95;;;2.17;;
23260;SDS011;11799;47.740;-3.390;2023-07-13T01:38:17;6.15;;;2.22;;
23260;SDS011;11799;47.740;-3.390;2023-07-13T01:40:44;5.72;;;1.98;;
23260;SDS011;11799;47.740;-3.390;2023-07-13T01:43:10;6.55;;;2.00;;
23260;SDS011;11799;47.740;-3.390;2023-07-13T01:45:36;6.38;;;2.33;;
23260;SDS011;11799;47.740;-3.390;2023-07-13T01:48:01;4.55;;;2.10;;
23260;SDS011;11799;47.740;-3.390;2023-07-13T01:50:27;6.88;;;1.80;;
23260;SDS011;11799;47.740;-3.390;2023-07-13T01:52:53;5.30;;;1.90;;
23260;SDS011;11799;47.740;-3.390;2023-07-13T01:55:19;6.03;;;2.10;;
23260;SDS011;11799;47.740;-3.390;2023-07-13T01:57:45;9.57;;;2.53;;
23260;SDS011;11799;47.740;-3.390;2023-07-13T02:00:12;6.80;;;2.33;;
23260;SDS011;11799;47.740;-3.390;2023-07-13T02:02:41;5.60;;;2.10;;
23260;SDS011;11799;47.740;-3.390;2023-07-13T02:05:09;5.60;;;2.25;;
23260;SDS011;11799;47.740;-3.390;2023-07-13T02:07:35;5.82;;;2.03;;
23260;SDS011;11799;47.740;-3.390;2023-07-13T02:10:02;6.53;;;2.08;;
23260;SDS011;11799;47.740;-3.390;2023-07-13T02:12:28;5.18;;;2.05;;
23260;SDS011;11799;47.740;-3.390;2023-07-13T02:14:53;5.43;;;1.88;;
23260;SDS011;11799;47.740;-3.390;2023-07-13T02:17:19;4.78;;;2.00;;
23260;SDS011;11799;47.740;-3.390;2023-07-13T02:19:45;4.68;;;2.10;;
23260;SDS011;11799;47.740;-3.390;2023-07-13T02:22:11;11.40;;;2.55;;
23260;SDS011;11799;47.740;-3.390;2023-07-13T02:24:36;7.35;;;2.17;;
23260;SDS011;11799;47.740;-3.390;2023-07-13T02:27:04;10.93;;;2.55;;
23260;SDS011;11799;47.740;-3.390;2023-07-13T02:29:30;8.02;;;2.10;;
23260;SDS011;11799;47.740;-3.390;2023-07-13T02:31:55;4.82;;;2.05;;
23260;SDS011;11799;47.740;-3.390;2023-07-13T02:34:21;7.88;;;1.90;;
23260;SDS011;11799;47.740;-3.390;2023-07-13T02:36:47;6.25;;;2.08;;
23260;SDS011;11799;47.740;-3.390;2023-07-13T02:39:13;7.07;;;2.20;;
23260;SDS011;11799;47.740;-3.390;2023-07-13T02:41:38;8.43;;;1.88;;
23260;SDS011;11799;47.740;-3.390;2023-07-13T02:44:04;7.45;;;2.10;;
23260;SDS011;11799;47.740;-3.390;2023-07-13T02:46:31;8.25;;;2.50;;
23260;SDS011;11799;47.740;-3.390;2023-07-13T02:49:00;6.35;;;2.10;;
23260;SDS011;11799;47.740;-3.390;2023-07-13T02:51:26;5.35;;;2.00;;
23260;SDS011;11799;47.740;-3.390;2023-07-13T02:53:52;3.55;;;1.90;;
23260;SDS011;11799;47.740;-3.390;2023-07-13T02:56:18;5.68;;;2.20;;
23260;SDS011;11799;47.740;-3.390;2023-07-13T02:58:48;8.55;;;2.20;;
23260;SDS011;11799;47.740;-3.390;2023-07-13T03:01:13;5.78;;;1.83;;
23260;SDS011;11799;47.740;-3.390;2023-07-13T03:03:47;7.05;;;2.30;;
23260;SDS011;11799;47.740;-3.390;2023-07-13T03:06:14;8.90;;;2.17;;
23260;SDS011;11799;47.740;-3.390;2023-07-13T03:08:46;9.30;;;2.50;;
23260;SDS011;11799;47.740;-3.390;2023-07-13T03:11:14;9.40;;;2.28;;
23260;SDS011;11799;47.740;-3.390;2023-07-13T03:13:42;6.03;;;2.13;;
23260;SDS011;11799;47.740;-3.390;2023-07-13T03:16:09;5.85;;;2.10;;
23260;SDS011;11799;47.740;-3.390;2023-07-13T03:18:36;8.05;;;2.35;;
23260;SDS011;11799;47.740;-3.390;2023-07-13T03:21:04;10.25;;;2.70;;
23260;SDS011;11799;47.740;-3.390;2023-07-13T03:23:31;4.85;;;1.88;;
23260;SDS011;11799;47.740;-3.390;2023-07-13T03:26:05;6.75;;;2.28;;
23260;SDS011;11799;47.740;-3.390;2023-07-13T03:28:40;10.48;;;3.45;;
23260;SDS011;11799;47.740;-3.390;2023-07-13T03:31:08;6.10;;;2.00;;
23260;SDS011;11799;47.740;-3.390;2023-07-13T03:33:39;7.80;;;2.13;;
23260;SDS011;11799;47.740;-3.390;2023-07-13T03:36:06;7.70;;;2.33;;
23260;SDS011;11799;47.740;-3.390;2023-07-13T03:38:33;6.40;;;2.38;;
23260;SDS011;11799;47.740;-3.390;2023-07-13T03:41:01;6.15;;;2.25;;
23260;SDS011;11799;47.740;-3.390;2023-07-13T03:43:27;7.35;;;2.20;;
23260;SDS011;11799;47.740;-3.390;2023-07-13T03:45:53;3.97;;;1.85;;
23260;SDS011;11799;47.740;-3.390;2023-07-13T03:48:18;5.22;;;2.33;;
23260;SDS011;11799;47.740;-3.390;2023-07-13T03:50:44;7.85;;;2.20;;
23260;SDS011;11799;47.740;-3.390;2023-07-13T03:53:09;6.63;;;2.25;;
23260;SDS011;11799;47.740;-3.390;2023-07-13T03:55:35;9.35;;;2.95;;
23260;SDS011;11799;47.740;-3.390;2023-07-13T03:58:22;5.63;;;2.20;;
23260;SDS011;11799;47.740;-3.390;2023-07-13T04:00:54;9.48;;;2.50;;
23260;SDS011;11799;47.740;-3.390;2023-07-13T04:03:20;7.93;;;2.45;;
23260;SDS011;11799;47.740;-3.390;2023-07-13T04:05:46;6.38;;;2.28;;
23260;SDS011;11799;47.740;-3.390;2023-07-13T04:08:12;7.45;;;2.00;;
23260;SDS011;11799;47.740;-3.390;2023-07-13T04:10:38;9.38;;;2.95;;
23260;SDS011;11799;47.740;-3.390;2023-07-13T04:13:04;5.57;;;2.20;;
23260;SDS011;11799;47.740;-3.390;2023-07-13T04:15:31;6.07;;;2.30;;
23260;SDS011;11799;47.740;-3.390;2023-07-13T04:17:57;8.15;;;2.05;;
23260;SDS011;11799;47.740;-3.390;2023-07-13T04:20:23;8.30;;;2.25;;
23260;SDS011;11799;47.740;-3.390;2023-07-13T04:22:50;4.35;;;2.10;;
23260;SDS011;11799;47.740;-3.390;2023-07-13T04:25:16;4.95;;;2.03;;
23260;SDS011;11799;47.740;-3.390;2023-07-13T04:27:41;9.52;;;2.30;;
23260;SDS011;11799;47.740;-3.390;2023-07-13T04:30:07;6.18;;;2.47;;
23260;SDS011;11799;47.740;-3.390;2023-07-13T04:32:33;5.25;;;2.20;;
23260;SDS011;11799;47.740;-3.390;2023-07-13T04:34:58;7.22;;;2.42;;
23260;SDS011;11799;47.740;-3.390;2023-07-13T04:37:25;8.25;;;2.35;;
23260;SDS011;11799;47.740;-3.390;2023-07-13T04:39:51;10.52;;;2.25;;
23260;SDS011;11799;47.740;-3.390;2023-07-13T04:42:17;6.78;;;2.17;;
23260;SDS011;11799;47.740;-3.390;2023-07-13T04:44:47;5.75;;;2.22;;
23260;SDS011;11799;47.740;-3.390;2023-07-13T04:47:16;7.38;;;2.40;;
23260;SDS011;11799;47.740;-3.390;2023-07-13T04:49:41;10.10;;;2.20;;
23260;SDS011;11799;47.740;-3.390;2023-07-13T04:52:07;6.53;;;2.05;;
23260;SDS011;11799;47.740;-3.390;2023-07-13T04:54:33;7.40;;;2.70;;
23260;SDS011;11799;47.740;-3.390;2023-07-13T04:57:00;6.38;;;2.28;;
23260;SDS011;11799;47.740;-3.390;2023-07-13T04:59:26;6.47;;;2.25;;
23260;SDS011;11799;47.740;-3.390;2023-07-13T05:01:52;5.18;;;2.33;;
23260;SDS011;11799;47.740;-3.390;2023-07-13T05:04:18;7.07;;;2.20;;
23260;SDS011;11799;47.740;-3.390;2023-07-13T05:06:43;6.20;;;2.00;;
23260;SDS011;11799;47.740;-3.390;2023-07-13T05:09:09;6.22;;;2.65;;
23260;SDS011;11799;47.740;-3.390;2023-07-13T05:11:35;7.38;;;2.65;;
23260;SDS011;11799;47.740;-3.390;2023-07-13T05:14:00;5.40;;;2.40;;
23260;SDS011;11799;47.740;-3.390;2023-07-13T05:16:29;7.57;;;1.90;;
23260;SDS011;11799;47.740;-3.390;2023-07-13T05:18:54;6.88;;;2.58;;
23260;SDS011;11799;47.740;-3.390;2023-07-13T05:21:20;8.10;;;2.17;;
23260;SDS011;11799;47.740;-3.390;2023-07-13T05:23:45;6.95;;;2.33;;
23260;SDS011;11799;47.740;-3.390;2023-07-13T05:26:12;7.88;;;2.40;;
23260;SDS011;11799;47.740;-3.390;2023-07-13T05:28:38;4.80;;;2.30;;
23260;SDS011;11799;47.740;-3.390;2023-07-13T05:31:04;5.53;;;2.25;;
23260;SDS011;11799;47.740;-3.390;2023-07-13T05:33:30;4.93;;;2.30;;
23260;SDS011;11799;47.740;-3.390;2023-07-13T05:35:55;5.97;;;2.25;;
23260;SDS011;11799;47.740;-3.390;2023-07-13T05:38:21;4.18;;;2.17;;
23260;SDS011;11799;47.740;-3.390;2023-07-13T05:40:47;7.45;;;2.90;;
23260;SDS011;11799;47.740;-3.390;2023-07-13T05:43:13;5.75;;;2.20;;
23260;SDS011;11799;47.740;-3.390;2023-07-13T05:45:39;5.88;;;2.15;;
23260;SDS011;11799;47.740;-3.390;2023-07-13T05:48:05;6.38;;;2.30;;
23260;SDS011;11799;47.740;-3.390;2023-07-13T05:50:31;7.53;;;2.92;;
23260;SDS011;11799;47.740;-3.390;2023-07-13T05:52:57;9.07;;;2.53;;
23260;SDS011;11799;47.740;-3.390;2023-07-13T05:55:22;7.05;;;2.35;;
23260;SDS011;11799;47.740;-3.390;2023-07-13T05:57:48;8.73;;;2.42;;
23260;SDS011;11799;47.740;-3.390;2023-07-13T06:00:14;6.90;;;2.40;;
23260;SDS011;11799;47.740;-3.390;2023-07-13T06:02:40;5.57;;;2.17;;
23260;SDS011;11799;47.740;-3.390;2023-07-13T06:05:06;6.55;;;2.70;;
23260;SDS011;11799;47.740;-3.390;2023-07-13T06:07:32;5.72;;;2.60;;
23260;SDS011;11799;47.740;-3.390;2023-07-13T06:09:58;9.10;;;2.90;;
23260;SDS011;11799;47.740;-3.390;2023-07-13T06:12:24;8.77;;;2.22;;
23260;SDS011;11799;47.740;-3.390;2023-07-13T06:14:50;6.80;;;2.10;;
23260;SDS011;11799;47.740;-3.390;2023-07-13T06:17:16;6.82;;;2.45;;
23260;SDS011;11799;47.740;-3.390;2023-07-13T06:19:41;7.13;;;2.13;;
23260;SDS011;11799;47.740;-3.390;2023-07-13T06:22:07;6.18;;;2.28;;
23260;SDS011;11799;47.740;-3.390;2023-07-13T06:24:33;6.68;;;2.30;;
23260;SDS011;11799;47.740;-3.390;2023-07-13T06:26:58;5.43;;;2.33;;
23260;SDS011;11799;47.740;-3.390;2023-07-13T06:29:24;10.93;;;2.45;;
23260;SDS011;11799;47.740;-3.390;2023-07-13T06:31:49;11.02;;;2.50;;
23260;SDS011;11799;47.740;-3.390;2023-07-13T06:34:15;7.57;;;2.60;;
23260;SDS011;11799;47.740;-3.390;2023-07-13T06:36:41;5.57;;;2.20;;
23260;SDS011;11799;47.740;-3.390;2023-07-13T06:39:06;8.18;;;2.22;;
23260;SDS011;11799;47.740;-3.390;2023-07-13T06:41:32;8.63;;;2.58;;
23260;SDS011;11799;47.740;-3.390;2023-07-13T06:43:58;7.07;;;2.53;;
23260;SDS011;11799;47.740;-3.390;2023-07-13T06:46:24;6.30;;;2.25;;
23260;SDS011;11799;47.740;-3.390;2023-07-13T06:48:49;6.85;;;2.28;;
23260;SDS011;11799;47.740;-3.390;2023-07-13T06:51:15;10.40;;;2.65;;
23260;SDS011;11799;47.740;-3.390;2023-07-13T06:53:41;7.63;;;2.50;;
23260;SDS011;11799;47.740;-3.390;2023-07-13T06:56:08;7.28;;;2.80;;
23260;SDS011;11799;47.740;-3.390;2023-07-13T06:58:35;6.45;;;2.08;;
23260;SDS011;11799;47.740;-3.390;2023-07-13T07:01:02;7.65;;;2.13;;
23260;SDS011;11799;47.740;-3.390;2023-07-13T07:03:28;8.05;;;2.53;;
23260;SDS011;11799;47.740;-3.390;2023-07-13T07:05:54;6.55;;;2.38;;
23260;SDS011;11799;47.740;-3.390;2023-07-13T07:08:24;7.45;;;2.63;;
23260;SDS011;11799;47.740;-3.390;2023-07-13T07:10:50;6.22;;;1.88;;
23260;SDS011;11799;47.740;-3.390;2023-07-13T07:13:19;9.00;;;2.47;;
23260;SDS011;11799;47.740;-3.390;2023-07-13T07:15:45;9.88;;;2.40;;
23260;SDS011;11799;47.740;-3.390;2023-07-13T07:18:10;5.55;;;2.15;;
23260;SDS011;11799;47.740;-3.390;2023-07-13T07:20:36;9.13;;;2.67;;
23260;SDS011;11799;47.740;-3.390;2023-07-13T07:23:01;7.97;;;2.40;;
23260;SDS011;11799;47.740;-3.390;2023-07-13T07:25:27;6.63;;;2.20;;
23260;SDS011;11799;47.740;-3.390;2023-07-13T07:27:57;9.45;;;2.42;;
23260;SDS011;11799;47.740;-3.390;2023-07-13T07:30:23;6.25;;;1.95;;
23260;SDS011;11799;47.740;-3.390;2023-07-13T07:32:48;8.45;;;2.58;;
23260;SDS011;11799;47.740;-3.390;2023-07-13T07:35:14;8.50;;;2.40;;
23260;SDS011;11799;47.740;-3.390;2023-07-13T07:37:39;6.63;;;2.50;;
23260;SDS011;11799;47.740;-3.390;2023-07-13T07:40:05;5.70;;;1.80;;
23260;SDS011;11799;47.740;-3.390;2023-07-13T07:42:32;7.10;;;2.25;;
23260;SDS011;11799;47.740;-3.390;2023-07-13T07:44:57;6.57;;;2.40;;
23260;SDS011;11799;47.740;-3.390;2023-07-13T07:47:23;8.48;;;2.50;;
23260;SDS011;11799;47.740;-3.390;2023-07-13T07:49:49;6.75;;;2.40;;
23260;SDS011;11799;47.740;-3.390;2023-07-13T07:52:14;4.68;;;2.00;;
23260;SDS011;11799;47.740;-3.390;2023-07-13T07:54:40;6.53;;;2.20;;
23260;SDS011;11799;47.740;-3.390;2023-07-13T07:57:05;10.43;;;2.50;;
23260;SDS011;11799;47.740;-3.390;2023-07-13T07:59:31;5.97;;;3.00;;
23260;SDS011;11799;47.740;-3.390;2023-07-13T08:01:57;5.20;;;2.20;;
23260;SDS011;11799;47.740;-3.390;2023-07-13T08:04:23;7.22;;;2.30;;
23260;SDS011;11799;47.740;-3.390;2023-07-13T08:06:48;4.80;;;2.20;;
23260;SDS011;11799;47.740;-3.390;2023-07-13T08:09:14;5.30;;;2.03;;
23260;SDS011;11799;47.740;-3.390;2023-07-13T08:11:39;4.88;;;2.00;;
23260;SDS011;11799;47.740;-3.390;2023-07-13T08:14:05;8.55;;;2.45;;
23260;SDS011;11799;47.740;-3.390;2023-07-13T08:16:30;6.68;;;2.03;;
23260;SDS011;11799;47.740;-3.390;2023-07-13T08:18:58;5.72;;;2.13;;
23260;SDS011;11799;47.740;-3.390;2023-07-13T08:21:23;8.25;;;2.00;;
23260;SDS011;11799;47.740;-3.390;2023-07-13T08:23:49;6.25;;;2.00;;
23260;SDS011;11799;47.740;-3.390;2023-07-13T08:26:14;8.18;;;2.33;;
23260;SDS011;11799;47.740;-3.390;2023-07-13T08:28:40;6.55;;;1.90;;
23260;SDS011;11799;47.740;-3.390;2023-07-13T08:31:06;4.90;;;2.25;;
23260;SDS011;11799;47.740;-3.390;2023-07-13T08:33:34;6.30;;;2.08;;
23260;SDS011;11799;47.740;-3.390;2023-07-13T08:36:00;6.25;;;2.42;;
23260;SDS011;11799;47.740;-3.390;2023-07-13T08:38:27;5.40;;;1.70;;
23260;SDS011;11799;47.740;-3.390;2023-07-13T08:40:53;5.63;;;1.98;;
23260;SDS011;11799;47.740;-3.390;2023-07-13T08:43:30;3.90;;;2.00;;
23260;SDS011;11799;47.740;-3.390;2023-07-13T08:46:12;6.72;;;2.42;;
23260;SDS011;11799;47.740;-3.390;2023-07-13T08:48:46;6.47;;;2.05;;
23260;SDS011;11799;47.740;-3.390;2023-07-13T08:54:03;4.53;;;2.00;;
23260;SDS011;11799;47.740;-3.390;2023-07-13T08:56:43;7.00;;;2.20;;
23260;SDS011;11799;47.740;-3.390;2023-07-13T08:59:16;8.73;;;2.35;;
23260;SDS011;11799;47.740;-3.390;2023-07-13T09:04:52;6.38;;;1.83;;
23260;SDS011;11799;47.740;-3.390;2023-07-13T09:07:26;7.18;;;2.15;;
23260;SDS011;11799;47.740;-3.390;2023-07-13T09:10:09;8.20;;;1.88;;
23260;SDS011;11799;47.740;-3.390;2023-07-13T09:15:46;5.93;;;2.38;;
23260;SDS011;11799;47.740;-3.390;2023-07-13T09:18:16;6.53;;;1.95;;
23260;SDS011;11799;47.740;-3.390;2023-07-13T09:21:29;7.15;;;2.30;;
23260;SDS011;11799;47.740;-3.390;2023-07-13T09:23:59;5.28;;;2.00;;
23260;SDS011;11799;47.740;-3.390;2023-07-13T09:26:40;10.20;;;2.50;;
23260;SDS011;11799;47.740;-3.390;2023-07-13T09:29:13;9.25;;;2.13;;
23260;SDS011;11799;47.740;-3.390;2023-07-13T09:31:45;5.53;;;1.90;;
23260;SDS011;11799;47.740;-3.390;2023-07-13T09:34:17;9.70;;;2.25;;
23260;SDS011;11799;47.740;-3.390;2023-07-13T09:36:43;5.72;;;2.28;;
23260;SDS011;11799;47.740;-3.390;2023-07-13T09:46:39;6.95;;;2.20;;
23260;SDS011;11799;47.740;-3.390;2023-07-13T09:49:17;6.82;;;2.30;;
23260;SDS011;11799;47.740;-3.390;2023-07-13T09:51:44;6.82;;;2.10;;
23260;SDS011;11799;47.740;-3.390;2023-07-13T09:54:17;8.00;;;2.55;;
23260;SDS011;11799;47.740;-3.390;2023-07-13T09:56:45;8.27;;;2.83;;
23260;SDS011;11799;47.740;-3.390;2023-07-13T09:59:53;5.88;;;2.08;;
23260;SDS011;11799;47.740;-3.390;2023-07-13T10:02:22;6.35;;;3.45;;
23260;SDS011;11799;47.740;-3.390;2023-07-13T10:04:53;13.43;;;5.97;;
23260;SDS011;11799;47.740;-3.390;2023-07-13T10:07:22;17.83;;;12.55;;
23260;SDS011;11799;47.740;-3.390;2023-07-13T10:09:51;9.52;;;4.50;;
23260;SDS011;11799;47.740;-3.390;2023-07-13T10:12:19;8.20;;;3.25;;
23260;SDS011;11799;47.740;-3.390;2023-07-13T10:14:45;5.95;;;2.47;;
23260;SDS011;11799;47.740;-3.390;2023-07-13T10:17:13;4.95;;;2.00;;
23260;SDS011;11799;47.740;-3.390;2023-07-13T10:19:39;8.35;;;2.08;;
23260;SDS011;11799;47.740;-3.390;2023-07-13T10:22:20;4.15;;;1.90;;
23260;SDS011;11799;47.740;-3.390;2023-07-13T10:24:52;9.23;;;1.80;;
23260;SDS011;11799;47.740;-3.390;2023-07-13T10:27:20;6.53;;;2.15;;
23260;SDS011;11799;47.740;-3.390;2023-07-13T10:29:56;3.80;;;1.92;;
23260;SDS011;11799;47.740;-3.390;2023-07-13T10:32:36;3.70;;;1.73;;
23260;SDS011;11799;47.740;-3.390;2023-07-13T10:35:02;6.90;;;1.85;;
23260;SDS011;11799;47.740;-3.390;2023-07-13T10:40:27;6.88;;;2.33;;
23260;SDS011;11799;47.740;-3.390;2023-07-13T10:42:58;6.85;;;3.50;;
23260;SDS011;11799;47.740;-3.390;2023-07-13T10:45:27;5.30;;;2.17;;
23260;SDS011;11799;47.740;-3.390;2023-07-13T10:47:59;3.60;;;1.80;;
23260;SDS011;11799;47.740;-3.390;2023-07-13T10:50:25;3.58;;;1.63;;
23260;SDS011;11799;47.740;-3.390;2023-07-13T10:52:54;5.05;;;1.80;;
23260;SDS011;11799;47.740;-3.390;2023-07-13T10:55:32;5.70;;;2.80;;
23260;SDS011;11799;47.740;-3.390;2023-07-13T10:58:22;7.75;;;2.55;;
23260;SDS011;11799;47.740;-3.390;2023-07-13T11:01:01;4.07;;;1.80;;
23260;SDS011;11799;47.740;-3.390;2023-07-13T11:06:15;3.88;;;1.63;;
23260;SDS011;11799;47.740;-3.390;2023-07-13T11:18:52;5.35;;;1.75;;
23260;SDS011;11799;47.740;-3.390;2023-07-13T11:22:01;7.45;;;1.88;;
23260;SDS011;11799;47.740;-3.390;2023-07-13T11:28:05;4.87;;;1.57;;
23260;SDS011;11799;47.740;-3.390;2023-07-13T11:30:32;2.38;;;1.40;;
23260;SDS011;11799;47.740;-3.390;2023-07-13T11:38:19;3.88;;;1.60;;
23260;SDS011;11799;47.740;-3.390;2023-07-13T11:40:54;4.82;;;1.85;;
23260;SDS011;11799;47.740;-3.390;2023-07-13T11:43:21;5.65;;;2.10;;
23260;SDS011;11799;47.740;-3.390;2023-07-13T11:45:50;3.28;;;1.73;;
23260;SDS011;11799;47.740;-3.390;2023-07-13T11:48:26;3.72;;;1.40;;
23260;SDS011;11799;47.740;-3.390;2023-07-13T11:50:58;4.97;;;1.65;;
23260;SDS011;11799;47.740;-3.390;2023-07-13T11:53:40;4.50;;;1.40;;
23260;SDS011;11799;47.740;-3.390;2023-07-13T11:56:10;4.30;;;1.60;;
23260;SDS011;11799;47.740;-3.390;2023-07-13T11:58:37;5.00;;;1.60;;
23260;SDS011;11799;47.740;-3.390;2023-07-13T12:01:03;2.45;;;1.23;;
23260;SDS011;11799;47.740;-3.390;2023-07-13T12:03:32;2.85;;;1.35;;
23260;SDS011;11799;47.740;-3.390;2023-07-13T12:06:01;4.97;;;1.50;;
23260;SDS011;11799;47.740;-3.390;2023-07-13T12:08:31;4.25;;;1.50;;
23260;SDS011;11799;47.740;-3.390;2023-07-13T12:11:04;3.70;;;1.50;;
23260;SDS011;11799;47.740;-3.390;2023-07-13T12:13:35;2.38;;;1.38;;
23260;SDS011;11799;47.740;-3.390;2023-07-13T12:16:07;3.17;;;1.38;;
23260;SDS011;11799;47.740;-3.390;2023-07-13T12:18:37;2.70;;;1.40;;
23260;SDS011;11799;47.740;-3.390;2023-07-13T12:21:03;3.17;;;1.30;;
23260;SDS011;11799;47.740;-3.390;2023-07-13T12:23:34;4.03;;;1.38;;
23260;SDS011;11799;47.740;-3.390;2023-07-13T12:26:04;3.00;;;1.88;;
23260;SDS011;11799;47.740;-3.390;2023-07-13T12:28:35;4.72;;;1.77;;
23260;SDS011;11799;47.740;-3.390;2023-07-13T12:31:08;1.75;;;1.30;;
23260;SDS011;11799;47.740;-3.390;2023-07-13T12:33:48;2.28;;;1.30;;
23260;SDS011;11799;47.740;-3.390;2023-07-13T12:36:22;4.00;;;1.30;;
23260;SDS011;11799;47.740;-3.390;2023-07-13T12:38:47;1.95;;;1.40;;
23260;SDS011;11799;47.740;-3.390;2023-07-13T12:41:14;6.75;;;1.42;;
23260;SDS011;11799;47.740;-3.390;2023-07-13T12:43:40;3.80;;;1.40;;
23260;SDS011;11799;47.740;-3.390;2023-07-13T12:48:41;3.25;;;1.40;;
23260;SDS011;11799;47.740;-3.390;2023-07-13T12:51:13;4.47;;;1.50;;
23260;SDS011;11799;47.740;-3.390;2023-07-13T12:53:40;3.00;;;1.55;;
23260;SDS011;11799;47.740;-3.390;2023-07-13T12:56:08;2.15;;;1.30;;
23260;SDS011;11799;47.740;-3.390;2023-07-13T12:58:46;2.63;;;1.45;;
23260;SDS011;11799;47.740;-3.390;2023-07-13T13:01:19;4.38;;;1.33;;
23260;SDS011;11799;47.740;-3.390;2023-07-13T13:03:48;5.22;;;1.65;;
23260;SDS011;11799;47.740;-3.390;2023-07-13T13:08:52;3.88;;;1.48;;
23260;SDS011;11799;47.740;-3.390;2023-07-13T13:11:21;2.88;;;1.73;;
23260;SDS011;11799;47.740;-3.390;2023-07-13T13:13:49;3.28;;;1.60;;
23260;SDS011;11799;47.740;-3.390;2023-07-13T13:18:47;4.15;;;1.40;;
23260;SDS011;11799;47.740;-3.390;2023-07-13T13:21:14;3.95;;;1.50;;
23260;SDS011;11799;47.740;-3.390;2023-07-13T13:23:41;6.55;;;2.88;;
23260;SDS011;11799;47.740;-3.390;2023-07-13T13:26:13;5.82;;;2.10;;
23260;SDS011;11799;47.740;-3.390;2023-07-13T13:28:43;4.55;;;1.25;;
23260;SDS011;11799;47.740;-3.390;2023-07-13T13:31:09;2.22;;;1.50;;
23260;SDS011;11799;47.740;-3.390;2023-07-13T13:33:40;4.63;;;1.70;;
23260;SDS011;11799;47.740;-3.390;2023-07-13T13:36:18;4.17;;;2.37;;
23260;SDS011;11799;47.740;-3.390;2023-07-13T13:38:46;4.53;;;1.80;;
23260;SDS011;11799;47.740;-3.390;2023-07-13T13:41:13;1.50;;;1.15;;
23260;SDS011;11799;47.740;-3.390;2023-07-13T13:43:40;2.72;;;1.23;;
23260;SDS011;11799;47.740;-3.390;2023-07-13T13:46:24;2.88;;;1.40;;
23260;SDS011;11799;47.740;-3.390;2023-07-13T13:48:50;3.88;;;1.58;;
23260;SDS011;11799;47.740;-3.390;2023-07-13T13:53:46;2.42;;;1.30;;
23260;SDS011;11799;47.740;-3.390;2023-07-13T13:56:13;2.25;;;1.20;;
23260;SDS011;11799;47.740;-3.390;2023-07-13T13:58:40;3.70;;;1.23;;
23260;SDS011;11799;47.740;-3.390;2023-07-13T14:01:11;1.15;;;1.05;;
23260;SDS011;11799;47.740;-3.390;2023-07-13T14:03:45;2.92;;;1.30;;
23260;SDS011;11799;47.740;-3.390;2023-07-13T14:06:11;2.65;;;1.15;;
23260;SDS011;11799;47.740;-3.390;2023-07-13T14:08:38;4.97;;;1.20;;
23260;SDS011;11799;47.740;-3.390;2023-07-13T14:11:03;3.67;;;1.38;;
23260;SDS011;11799;47.740;-3.390;2023-07-13T14:13:39;2.33;;;1.30;;
23260;SDS011;11799;47.740;-3.390;2023-07-13T14:16:10;4.07;;;1.60;;
23260;SDS011;11799;47.740;-3.390;2023-07-13T14:18:38;4.22;;;1.63;;
23260;SDS011;11799;47.740;-3.390;2023-07-13T14:21:08;4.10;;;1.42;;
23260;SDS011;11799;47.740;-3.390;2023-07-13T14:23:37;4.38;;;1.30;;
23260;SDS011;11799;47.740;-3.390;2023-07-13T14:26:07;1.92;;;1.13;;
23260;SDS011;11799;47.740;-3.390;2023-07-13T14:28:36;2.10;;;1.20;;
23260;SDS011;11799;47.740;-3.390;2023-07-13T14:31:06;4.45;;;1.67;;
23260;SDS011;11799;47.740;-3.390;2023-07-13T14:33:32;4.43;;;1.40;;
23260;SDS011;11799;47.740;-3.390;2023-07-13T14:35:57;3.90;;;1.40;;
23260;SDS011;11799;47.740;-3.390;2023-07-13T14:38:23;1.92;;;1.50;;
23260;SDS011;11799;47.740;-3.390;2023-07-13T14:40:48;5.97;;;1.85;;
23260;SDS011;11799;47.740;-3.390;2023-07-13T14:43:15;5.05;;;1.40;;
23260;SDS011;11799;47.740;-3.390;2023-07-13T14:45:42;2.28;;;1.38;;
23260;SDS011;11799;47.740;-3.390;2023-07-13T14:48:14;2.47;;;1.48;;
23260;SDS011;11799;47.740;-3.390;2023-07-13T14:50:44;3.15;;;1.48;;
23260;SDS011;11799;47.740;-3.390;2023-07-13T14:53:11;5.00;;;1.58;;
23260;SDS011;11799;47.740;-3.390;2023-07-13T14:55:38;2.42;;;1.45;;
23260;SDS011;11799;47.740;-3.390;2023-07-13T14:58:03;3.88;;;1.23;;
23260;SDS011;11799;47.740;-3.390;2023-07-13T15:00:29;4.00;;;1.27;;
23260;SDS011;11799;47.740;-3.390;2023-07-13T15:02:57;2.47;;;1.45;;
23260;SDS011;11799;47.740;-3.390;2023-07-13T15:05:27;2.00;;;1.30;;
23260;SDS011;11799;47.740;-3.390;2023-07-13T15:08:02;2.35;;;1.17;;
23260;SDS011;11799;47.740;-3.390;2023-07-13T15:10:29;4.07;;;1.30;;
23260;SDS011;11799;47.740;-3.390;2023-07-13T15:12:58;3.85;;;1.30;;
23260;SDS011;11799;47.740;-3.390;2023-07-13T15:15:29;3.67;;;1.40;;
23260;SDS011;11799;47.740;-3.390;2023-07-13T15:17:58;3.40;;;1.67;;
23260;SDS011;11799;47.740;-3.390;2023-07-13T15:22:50;3.63;;;1.30;;
23260;SDS011;11799;47.740;-3.390;2023-07-13T15:25:17;3.47;;;1.40;;
23260;SDS011;11799;47.740;-3.390;2023-07-13T15:27:44;3.65;;;1.20;;
23260;SDS011;11799;47.740;-3.390;2023-07-13T15:30:10;1.52;;;1.15;;
23260;SDS011;11799;47.740;-3.390;2023-07-13T15:32:36;2.95;;;1.42;;
23260;SDS011;11799;47.740;-3.390;2023-07-13T15:35:02;4.75;;;1.42;;
23260;SDS011;11799;47.740;-3.390;2023-07-13T15:37:28;5.15;;;1.50;;
23260;SDS011;11799;47.740;-3.390;2023-07-13T15:39:54;2.35;;;1.20;;